Time;durP1;ratioP1;P1;durP2;ratioP2;P2;SDS_P1;SDS_P2;PMS_P1;PMS_P2;Temp;Humidity;BMP_temperature;BMP_pressure;BME280_temperature;BME280_humidity;BME280_pressure;Samples;Min_cycle;Max_cycle;Signal;HPM_P1;HPM_P2
2022/09/17 00:01:47;;;;;;;0.00;0.00;;;9.60;99.90;;;;;;4964404;28;20047;-93
2022/09/17 00:04:13;;;;;;;0.30;0.25;;;9.80;99.90;;;;;;4945341;28;20129;-94
2022/09/17 00:06:44;;;;;;;0.03;0.03;;;9.70;99.90;;;;;;4958306;28;20153;-94
2022/09/17 00:09:18;;;;;;;0.00;0.00;;;9.70;99.90;;;;;;4943677;28;20051;-95
2022/09/17 00:11:43;;;;;;;0.00;0.00;;;9.50;99.90;;;;;;4946274;28;20066;-94
2022/09/17 00:14:16;;;;;;;0.00;0.00;;;9.60;99.90;;;;;;4946159;28;20150;-94
2022/09/17 00:16:51;;;;;;;0.45;0.13;;;9.50;99.90;;;;;;4961086;28;20049;-94
2022/09/17 00:19:32;;;;;;;0.00;0.00;;;9.50;99.90;;;;;;4962278;28;20052;-95
2022/09/17 00:22:04;;;;;;;0.10;0.10;;;9.40;99.90;;;;;;4962316;28;20049;-93
2022/09/17 00:24:32;;;;;;;0.00;0.00;;;9.30;99.90;;;;;;4962124;28;20042;-95
2022/09/17 00:27:01;;;;;;;0.77;0.40;;;9.40;99.90;;;;;;4966307;28;20133;-95
2022/09/17 00:29:30;;;;;;;0.00;0.00;;;9.30;99.90;;;;;;4961966;28;20068;-95
2022/09/17 00:31:58;;;;;;;0.00;0.00;;;9.30;99.90;;;;;;4958886;28;20050;-93
2022/09/17 00:34:29;;;;;;;0.00;0.00;;;9.30;99.90;;;;;;4947791;28;20077;-94
2022/09/17 00:36:55;;;;;;;0.95;0.10;;;8.60;99.90;;;;;;4961902;28;20061;-94
2022/09/17 00:39:23;;;;;;;0.00;0.00;;;9.30;99.90;;;;;;4957462;28;20047;-93
2022/09/17 00:41:51;;;;;;;0.00;0.00;;;9.30;99.90;;;;;;4947596;28;20050;-94
2022/09/17 00:44:52;;;;;;;0.10;0.10;;;9.40;99.90;;;;;;4950584;28;20082;-94
2022/09/17 00:47:27;;;;;;;0.00;0.00;;;9.20;99.90;;;;;;4947026;28;20152;-94
2022/09/17 00:50:05;;;;;;;0.47;0.45;;;9.30;99.90;;;;;;4943589;28;20042;-94
2022/09/17 00:52:44;;;;;;;0.00;0.00;;;9.30;99.90;;;;;;4950173;28;20065;-95
2022/09/17 00:55:20;;;;;;;0.00;0.00;;;9.30;99.90;;;;;;4961470;28;20481;-93
2022/09/17 00:57:55;;;;;;;0.20;0.20;;;9.90;99.90;;;;;;4963511;28;20054;-95
2022/09/17 01:00:21;;;;;;;0.10;0.00;;;9.30;99.90;;;;;;4950192;28;20214;-95
2022/09/17 01:02:54;;;;;;;0.10;0.00;;;9.30;99.90;;;;;;4957985;28;20489;-94
2022/09/17 01:05:47;;;;;;;3.88;0.25;;;9.30;99.90;;;;;;4955515;28;20133;-95
2022/09/17 01:08:33;;;;;;;0.10;0.10;;;9.30;99.90;;;;;;4959800;28;20054;-93
2022/09/17 01:11:19;;;;;;;0.00;0.00;;;9.30;99.90;;;;;;4959886;28;20042;-94
2022/09/17 01:14:06;;;;;;;0.52;0.52;;;10.10;99.90;;;;;;4970861;28;20038;-94
2022/09/17 01:16:37;;;;;;;0.00;0.00;;;9.30;99.90;;;;;;4948234;28;20046;-96
2022/09/17 01:19:23;;;;;;;0.00;0.00;;;9.40;99.90;;;;;;4961082;28;20042;-96
2022/09/17 01:22:09;;;;;;;0.00;0.00;;;9.30;99.90;;;;;;4953619;28;20047;-94
2022/09/17 01:24:52;;;;;;;0.00;0.00;;;9.30;99.90;;;;;;4975448;28;20129;-94
2022/09/17 01:27:50;;;;;;;0.00;0.00;;;9.30;99.90;;;;;;4953036;28;20156;-95
2022/09/17 01:30:47;;;;;;;0.00;0.00;;;9.20;99.90;;;;;;4960547;28;20054;-95
2022/09/17 01:33:37;;;;;;;0.00;0.00;;;9.30;99.90;;;;;;4976481;28;20054;-94
2022/09/17 01:36:22;;;;;;;0.10;0.10;;;9.00;99.90;;;;;;4960504;28;20105;-95
2022/09/17 01:39:12;;;;;;;0.00;0.00;;;9.20;99.90;;;;;;4959855;28;20485;-94
2022/09/17 01:42:06;;;;;;;0.00;0.00;;;9.10;99.90;;;;;;4955243;28;20053;-95
2022/09/17 01:44:52;;;;;;;0.00;0.00;;;9.00;99.90;;;;;;4949009;28;20046;-96
2022/09/17 01:47:23;;;;;;;0.00;0.00;;;8.10;99.90;;;;;;4959975;28;20046;-95
2022/09/17 01:50:00;;;;;;;0.00;0.00;;;9.00;99.90;;;;;;4944198;28;20046;-94
2022/09/17 01:52:34;;;;;;;1.98;0.43;;;9.00;99.90;;;;;;4960699;28;20050;-95
2022/09/17 01:55:13;;;;;;;0.10;0.10;;;8.90;99.90;;;;;;4976970;28;20081;-95
2022/09/17 01:57:44;;;;;;;0.45;0.10;;;9.00;99.90;;;;;;4961081;28;20124;-96
2022/09/17 02:00:19;;;;;;;0.00;0.00;;;9.00;99.90;;;;;;4959850;28;20100;-94
2022/09/17 02:03:19;;;;;;;0.10;0.00;;;8.90;99.90;;;;;;4969172;28;20050;-95
2022/09/17 02:06:31;;;;;;;0.00;0.00;;;8.90;99.90;;;;;;4948631;28;20074;-94
2022/09/17 02:09:01;;;;;;;0.20;0.08;;;9.00;99.90;;;;;;4942953;28;20058;-94
2022/09/17 02:11:27;;;;;;;0.00;0.00;;;8.60;99.90;;;;;;4977630;28;20053;-94
2022/09/17 02:14:08;;;;;;;0.00;0.00;;;8.90;99.90;;;;;;4963772;28;20053;-94
2022/09/17 02:16:47;;;;;;;0.00;0.00;;;8.90;99.90;;;;;;4964231;28;20081;-93
2022/09/17 02:19:36;;;;;;;;;;;;;;;;;;;;;
2022/09/17 02:22:24;;;;;;;0.00;0.00;;;8.90;99.90;;;;;;4968936;28;20077;-93
2022/09/17 02:25:09;;;;;;;0.00;0.00;;;8.00;99.90;;;;;;4956720;28;20054;-94
2022/09/17 02:27:50;;;;;;;0.00;0.00;;;8.90;99.90;;;;;;4956127;28;20106;-93
2022/09/17 02:30:19;;;;;;;0.10;0.10;;;8.90;99.90;;;;;;4962513;28;20049;-93
2022/09/17 02:32:50;;;;;;;0.10;0.10;;;8.80;99.90;;;;;;4962658;28;20425;-94
2022/09/17 02:35:19;;;;;;;0.00;0.00;;;8.90;99.90;;;;;;4963077;28;20066;-93
2022/09/17 02:37:48;;;;;;;0.00;0.00;;;8.80;99.90;;;;;;4960129;28;20051;-94
2022/09/17 02:40:26;;;;;;;0.00;0.00;;;8.80;99.90;;;;;;4960256;28;20125;-93
2022/09/17 02:43:28;;;;;;;0.00;0.00;;;8.80;99.90;;;;;;4960211;28;20054;-93
2022/09/17 02:46:25;;;;;;;0.00;0.00;;;8.90;99.90;;;;;;4967503;28;20077;-95
2022/09/17 02:49:19;;;;;;;0.08;0.05;;;8.90;99.90;;;;;;4960112;28;20103;-94
2022/09/17 02:52:14;;;;;;;0.30;0.30;;;8.90;99.90;;;;;;4948849;28;20070;-94
2022/09/17 02:55:11;;;;;;;0.00;0.00;;;9.00;99.90;;;;;;4976445;28;20050;-93
2022/09/17 02:58:06;;;;;;;0.00;0.00;;;9.10;99.90;;;;;;4960121;28;20462;-94
2022/09/17 03:00:35;;;;;;;0.00;0.00;;;9.10;99.90;;;;;;4963746;28;20050;-94
2022/09/17 03:03:22;;;;;;;0.00;0.00;;;9.10;99.90;;;;;;4955547;28;20440;-93
2022/09/17 03:05:49;;;;;;;0.00;0.00;;;9.10;99.90;;;;;;4961933;28;20096;-94
2022/09/17 03:08:19;;;;;;;0.00;0.00;;;9.10;99.90;;;;;;4943879;28;20112;-94
2022/09/17 03:10:49;;;;;;;0.00;0.00;;;9.10;99.90;;;;;;4944408;28;20043;-95
2022/09/17 03:13:19;;;;;;;0.00;0.00;;;9.10;99.90;;;;;;4968305;28;20046;-95
2022/09/17 03:15:48;;;;;;;0.00;0.00;;;8.00;99.90;;;;;;4979676;28;20091;-95
2022/09/17 03:18:15;;;;;;;0.00;0.00;;;9.10;99.90;;;;;;4944926;28;20073;-95
2022/09/17 03:20:50;;;;;;;0.00;0.00;;;9.00;99.90;;;;;;4948846;28;20496;-94
2022/09/17 03:23:19;;;;;;;0.40;0.00;;;9.00;99.90;;;;;;4961448;28;20066;-94
2022/09/17 03:25:46;;;;;;;0.05;0.05;;;8.90;99.90;;;;;;4962051;28;20061;-94
2022/09/17 03:28:24;;;;;;;0.55;0.10;;;8.40;99.90;;;;;;4962743;28;20129;-94
2022/09/17 03:30:58;;;;;;;0.50;0.20;;;8.90;99.90;;;;;;4979130;28;20138;-95
2022/09/17 03:33:31;;;;;;;0.05;0.05;;;8.90;99.90;;;;;;4958561;28;20354;-93
2022/09/17 03:35:59;;;;;;;0.00;0.00;;;8.90;99.90;;;;;;4943471;28;20139;-94
2022/09/17 03:38:25;;;;;;;0.00;0.00;;;8.90;99.90;;;;;;4962474;28;20408;-94
2022/09/17 03:41:06;;;;;;;0.00;0.00;;;8.90;99.90;;;;;;4930305;28;20049;-95
2022/09/17 03:43:35;;;;;;;0.00;0.00;;;8.80;99.90;;;;;;4960065;28;20393;-94
2022/09/17 03:46:06;;;;;;;0.20;0.00;;;8.90;99.90;;;;;;4966416;28;20089;-93
2022/09/17 03:48:35;;;;;;;0.00;0.00;;;8.80;99.90;;;;;;4955180;28;20557;-94
2022/09/17 03:51:06;;;;;;;0.00;0.00;;;8.80;99.90;;;;;;4961995;28;20129;-94
2022/09/17 03:53:35;;;;;;;0.00;0.00;;;9.00;99.90;;;;;;4929011;28;20057;-96
2022/09/17 03:56:07;;;;;;;0.00;0.00;;;8.90;99.90;;;;;;4961156;28;20159;-96
2022/09/17 03:58:43;;;;;;;0.00;0.00;;;9.10;99.90;;;;;;4945790;28;20082;-95
2022/09/17 04:01:14;;;;;;;0.00;0.00;;;9.00;99.90;;;;;;4966660;28;20105;-95
2022/09/17 04:03:44;;;;;;;0.00;0.00;;;10.00;99.90;;;;;;4955162;28;20043;-95
2022/09/17 04:06:18;;;;;;;0.00;0.00;;;9.10;99.90;;;;;;4941208;28;20512;-94
2022/09/17 04:08:44;;;;;;;0.00;0.00;;;9.10;99.90;;;;;;4953415;28;20045;-96
2022/09/17 04:11:10;;;;;;;0.00;0.00;;;9.20;99.90;;;;;;4961922;28;20038;-96
2022/09/17 04:13:36;;;;;;;0.20;0.10;;;9.10;99.90;;;;;;4961776;28;20042;-95
2022/09/17 04:16:15;;;;;;;0.00;0.00;;;9.00;99.90;;;;;;4958687;28;20058;-95
2022/09/17 04:18:41;;;;;;;0.00;0.00;;;9.10;99.90;;;;;;4943495;28;20441;-95
2022/09/17 04:21:14;;;;;;;0.00;0.00;;;9.00;99.90;;;;;;4958597;28;20126;-95
2022/09/17 04:23:40;;;;;;;0.00;0.00;;;9.10;99.90;;;;;;4959946;28;20392;-94
2022/09/17 04:26:06;;;;;;;0.07;0.07;;;9.00;99.90;;;;;;4958656;28;20145;-95
2022/09/17 04:28:31;;;;;;;0.00;0.00;;;9.00;99.90;;;;;;4961782;28;20357;-95
2022/09/17 04:31:02;;;;;;;0.00;0.00;;;8.80;99.90;;;;;;4960086;28;20054;-95
2022/09/17 04:33:40;;;;;;;0.00;0.00;;;8.90;99.90;;;;;;4971163;28;20042;-94
2022/09/17 04:36:11;;;;;;;0.00;0.00;;;8.90;99.90;;;;;;4948855;28;20550;-95
2022/09/17 04:38:42;;;;;;;0.00;0.00;;;8.90;99.90;;;;;;4965319;28;20043;-96
2022/09/17 04:41:10;;;;;;;0.00;0.00;;;9.70;99.90;;;;;;4960031;28;20047;-95
2022/09/17 04:43:41;;;;;;;0.10;0.10;;;8.80;99.90;;;;;;4958645;28;20092;-96
2022/09/17 04:46:20;;;;;;;;;;;;;;;;;;;;;
2022/09/17 04:48:48;;;;;;;0.10;0.10;;;8.80;99.90;;;;;;4959662;28;20390;-96
2022/09/17 04:51:22;;;;;;;0.00;0.00;;;8.90;99.90;;;;;;4993566;28;20046;-95
2022/09/17 04:53:56;;;;;;;0.00;0.00;;;8.90;99.90;;;;;;4960250;28;20078;-96
2022/09/17 04:56:22;;;;;;;0.00;0.00;;;8.80;99.90;;;;;;4944263;28;20043;-94
2022/09/17 04:58:57;;;;;;;0.00;0.00;;;9.00;99.90;;;;;;4942381;28;20047;-96
2022/09/17 05:01:28;;;;;;;0.00;0.00;;;8.80;99.90;;;;;;4927301;28;20047;-95
2022/09/17 05:04:05;;;;;;;0.00;0.00;;;8.80;99.90;;;;;;4972722;28;20054;-94
2022/09/17 05:06:35;;;;;;;0.00;0.00;;;8.80;99.90;;;;;;4948330;28;20106;-95
2022/09/17 05:09:06;;;;;;;0.10;0.10;;;8.80;99.90;;;;;;4953473;28;20110;-95
2022/09/17 05:11:37;;;;;;;0.00;0.00;;;8.70;99.90;;;;;;4943113;28;20042;-95
2022/09/17 05:14:13;;;;;;;;;;;;;;;;;;;;;
2022/09/17 05:16:39;;;;;;;0.15;0.00;;;8.80;99.90;;;;;;4962459;28;20046;-95
2022/09/17 05:19:08;;;;;;;0.00;0.00;;;8.70;99.90;;;;;;4973286;28;20038;-95
2022/09/17 05:21:34;;;;;;;0.00;0.00;;;8.70;99.90;;;;;;4954853;28;20050;-95
2022/09/17 05:24:10;;;;;;;0.00;0.00;;;8.80;99.90;;;;;;4962936;28;20120;-95
2022/09/17 05:26:38;;;;;;;0.00;0.00;;;8.70;99.90;;;;;;4961768;28;20080;-95
2022/09/17 05:29:13;;;;;;;0.00;0.00;;;8.70;99.90;;;;;;4928218;28;20073;-96
2022/09/17 05:31:39;;;;;;;0.00;0.00;;;8.70;99.90;;;;;;4961215;28;20049;-96
2022/09/17 05:34:10;;;;;;;0.00;0.00;;;8.70;99.90;;;;;;4971714;28;20043;-96
2022/09/17 05:36:45;;;;;;;2.75;0.10;;;9.20;99.90;;;;;;4928042;28;20074;-96
2022/09/17 05:39:25;;;;;;;0.10;0.10;;;8.70;99.90;;;;;;4949378;28;20078;-95
2022/09/17 05:41:56;;;;;;;0.00;0.00;;;8.80;99.90;;;;;;4963640;28;20353;-96
2022/09/17 05:44:22;;;;;;;0.00;0.00;;;8.10;99.90;;;;;;4962868;28;20046;-96
2022/09/17 05:46:51;;;;;;;0.00;0.00;;;9.00;99.90;;;;;;4961329;28;20113;-95
2022/09/17 05:49:17;;;;;;;0.20;0.00;;;9.10;99.90;;;;;;4967175;28;20309;-95
2022/09/17 05:51:45;;;;;;;1.10;0.67;;;9.10;99.90;;;;;;4961263;28;20056;-93
2022/09/17 05:54:14;;;;;;;0.00;0.00;;;9.10;99.90;;;;;;4959057;28;20133;-94
2022/09/17 05:56:42;;;;;;;0.00;0.00;;;9.20;99.90;;;;;;4960707;28;20056;-94
2022/09/17 05:59:11;;;;;;;0.85;0.08;;;9.30;99.90;;;;;;4970567;28;20054;-95
2022/09/17 06:01:42;;;;;;;0.13;0.10;;;8.50;99.90;;;;;;4947560;28;20117;-94
2022/09/17 06:04:18;;;;;;;0.00;0.00;;;9.40;99.90;;;;;;4926062;28;20039;-96
2022/09/17 06:06:49;;;;;;;0.20;0.20;;;9.40;99.90;;;;;;4951962;28;20489;-94
2022/09/17 06:09:20;;;;;;;0.00;0.00;;;9.30;99.90;;;;;;4928800;28;20053;-90
2022/09/17 06:11:49;;;;;;;0.00;0.00;;;9.30;99.90;;;;;;4921138;28;20050;-89
2022/09/17 06:14:15;;;;;;;0.20;0.05;;;9.40;99.90;;;;;;4960387;28;20042;-90
2022/09/17 06:16:43;;;;;;;0.00;0.00;;;9.40;99.90;;;;;;4960690;28;20042;-92
2022/09/17 06:19:16;;;;;;;0.00;0.00;;;8.80;99.90;;;;;;4954604;28;20039;-93
2022/09/17 06:21:51;;;;;;;;;;;;;;;;;;;;;
2022/09/17 06:24:49;;;;;;;0.00;0.00;;;9.30;99.90;;;;;;4973643;28;20185;-94
2022/09/17 06:27:25;;;;;;;;;;;;;;;;;;;;;
2022/09/17 06:29:56;;;;;;;0.03;0.03;;;9.20;99.90;;;;;;4942455;28;20485;-89
2022/09/17 06:32:24;;;;;;;0.00;0.00;;;9.70;99.90;;;;;;4957591;28;20129;-87
2022/09/17 06:34:52;;;;;;;0.00;0.00;;;9.10;99.90;;;;;;4943623;28;20050;-85
2022/09/17 06:37:18;;;;;;;0.00;0.00;;;9.10;99.90;;;;;;4964107;28;20105;-89
2022/09/17 06:39:44;;;;;;;0.00;0.00;;;9.20;99.90;;;;;;4956205;28;20062;-89
2022/09/17 06:42:11;;;;;;;0.00;0.00;;;9.20;99.90;;;;;;4947888;28;20121;-87
2022/09/17 06:44:37;;;;;;;;;;;9.20;99.90;;;;;;4958009;28;20116;-86
2022/09/17 06:47:03;;;;;;;0.00;0.00;;;9.10;99.90;;;;;;4975551;28;19921;-86
2022/09/17 06:49:30;;;;;;;0.00;0.00;;;9.20;99.90;;;;;;4938543;28;20446;-85
2022/09/17 06:51:56;;;;;;;0.00;0.00;;;9.20;99.90;;;;;;4930142;28;20530;-85
2022/09/17 06:54:24;;;;;;;0.00;0.00;;;9.20;99.90;;;;;;4944047;28;20046;-86
2022/09/17 06:56:50;;;;;;;0.00;0.00;;;9.60;99.90;;;;;;4962830;28;20775;-86
2022/09/17 06:59:16;;;;;;;0.00;0.00;;;9.80;99.90;;;;;;4946765;28;20138;-86
2022/09/17 07:01:42;;;;;;;0.03;0.03;;;10.00;99.90;;;;;;4947189;28;20046;-84
2022/09/17 07:04:08;;;;;;;0.03;0.03;;;10.30;99.90;;;;;;4947174;28;20058;-85
2022/09/17 07:06:33;;;;;;;0.00;0.00;;;10.50;99.90;;;;;;4943195;28;20054;-85
2022/09/17 07:08:59;;;;;;;0.00;0.00;;;10.50;99.90;;;;;;4912216;28;20059;-85
2022/09/17 07:11:25;;;;;;;0.00;0.00;;;10.40;99.90;;;;;;4943491;28;20050;-88
2022/09/17 07:13:51;;;;;;;0.00;0.00;;;10.40;99.90;;;;;;4976443;28;20062;-92
2022/09/17 07:16:19;;;;;;;1.17;0.07;;;10.20;99.90;;;;;;4963461;28;20045;-89
2022/09/17 07:18:45;;;;;;;0.00;0.00;;;10.20;99.90;;;;;;4979434;28;20049;-88
2022/09/17 07:21:10;;;;;;;0.00;0.00;;;10.10;99.90;;;;;;4961104;28;20042;-91
2022/09/17 07:23:41;;;;;;;0.00;0.00;;;10.10;99.90;;;;;;4956460;28;20057;-94
2022/09/17 07:26:15;;;;;;;0.00;0.00;;;10.50;99.90;;;;;;4961762;28;20053;-93
2022/09/17 07:28:42;;;;;;;0.00;0.00;;;10.90;99.90;;;;;;4962278;28;20133;-94
2022/09/17 07:31:09;;;;;;;0.08;0.05;;;11.10;99.90;;;;;;4962629;28;20089;-94
2022/09/17 07:33:36;;;;;;;0.10;0.00;;;10.20;99.90;;;;;;4978378;28;20054;-94
2022/09/17 07:36:03;;;;;;;;;;;10.20;99.90;;;;;;4962573;28;20133;-93
2022/09/17 07:38:39;;;;;;;0.10;0.10;;;10.90;99.90;;;;;;4961743;28;19968;-93
2022/09/17 07:41:13;;;;;;;0.00;0.00;;;10.80;99.90;;;;;;4978569;28;20054;-93
2022/09/17 07:43:40;;;;;;;0.00;0.00;;;10.80;99.90;;;;;;4978293;28;20489;-93
2022/09/17 07:46:08;;;;;;;0.10;0.10;;;11.00;99.90;;;;;;4962280;28;20042;-92
2022/09/17 07:48:34;;;;;;;0.10;0.10;;;11.20;99.90;;;;;;4961888;28;20118;-93
2022/09/17 07:51:00;;;;;;;0.00;0.00;;;11.50;99.90;;;;;;4946393;28;20058;-92
2022/09/17 07:53:28;;;;;;;0.10;0.10;;;11.70;99.90;;;;;;4961668;28;20046;-93
2022/09/17 07:55:59;;;;;;;0.00;0.00;;;11.90;99.90;;;;;;4978400;28;20278;-92
2022/09/17 07:58:34;;;;;;;0.80;0.10;;;12.00;99.90;;;;;;4961812;28;20436;-92
2022/09/17 08:01:08;;;;;;;0.05;0.05;;;12.10;99.90;;;;;;4976816;28;20561;-93
2022/09/17 08:03:34;;;;;;;0.00;0.00;;;12.20;99.90;;;;;;4961046;28;20572;-93
2022/09/17 08:06:04;;;;;;;0.10;0.10;;;12.20;99.90;;;;;;4962073;28;20062;-93
2022/09/17 08:08:36;;;;;;;0.00;0.00;;;12.30;99.90;;;;;;4961417;28;20556;-91
2022/09/17 08:11:04;;;;;;;0.00;0.00;;;12.40;99.90;;;;;;4946219;28;20085;-91
2022/09/17 08:13:33;;;;;;;0.00;0.00;;;12.50;99.90;;;;;;4961448;28;20042;-92
2022/09/17 08:16:06;;;;;;;0.00;0.00;;;12.50;99.90;;;;;;4961665;28;20050;-92
2022/09/17 08:18:33;;;;;;;0.00;0.00;;;12.70;99.90;;;;;;4961416;28;20057;-92
2022/09/17 08:21:09;;;;;;;0.00;0.00;;;12.90;99.90;;;;;;4977652;28;20077;-93
2022/09/17 08:23:36;;;;;;;0.00;0.00;;;12.30;99.90;;;;;;4961507;28;20050;-92
2022/09/17 08:26:07;;;;;;;0.00;0.00;;;13.10;99.90;;;;;;4962256;28;20397;-92
2022/09/17 08:28:34;;;;;;;0.00;0.00;;;13.00;99.90;;;;;;4977801;28;20042;-93
2022/09/17 08:31:25;;;;;;;0.00;0.00;;;12.80;99.90;;;;;;5019016;23;20094;-95
2022/09/17 08:33:51;;;;;;;0.55;0.20;;;12.50;99.90;;;;;;4983544;28;20058;-94
2022/09/17 08:36:21;;;;;;;0.10;0.10;;;12.20;99.90;;;;;;4997236;28;20045;-94
2022/09/17 08:38:51;;;;;;;0.00;0.00;;;11.90;99.90;;;;;;4981485;28;20075;-93
2022/09/17 08:41:32;;;;;;;0.20;0.10;;;11.70;99.90;;;;;;4997976;28;20477;-93
2022/09/17 08:44:14;;;;;;;0.05;0.00;;;11.50;99.90;;;;;;4980994;28;20049;-93
2022/09/17 08:46:49;;;;;;;0.10;0.10;;;11.30;99.90;;;;;;4980768;28;20081;-93
2022/09/17 08:49:38;;;;;;;0.00;0.00;;;11.20;99.90;;;;;;4980572;28;20081;-93
2022/09/17 08:52:36;;;;;;;0.00;0.00;;;11.20;99.90;;;;;;4980807;28;20093;-92
2022/09/17 08:55:10;;;;;;;0.00;0.00;;;11.40;99.90;;;;;;4973697;28;20120;-93
2022/09/17 08:57:56;;;;;;;0.00;0.00;;;11.50;99.90;;;;;;4997468;28;20092;-94
2022/09/17 09:00:24;;;;;;;0.00;0.00;;;11.60;99.90;;;;;;4981426;28;20054;-93
2022/09/17 09:03:38;;;;;;;0.00;0.00;;;11.00;99.90;;;;;;4980713;28;20061;-93
2022/09/17 09:06:10;;;;;;;0.00;0.00;;;11.90;99.90;;;;;;4981348;28;20052;-93
2022/09/17 09:08:46;;;;;;;0.00;0.00;;;12.10;99.90;;;;;;4965505;28;20060;-93
2022/09/17 09:11:21;;;;;;;0.00;0.00;;;12.30;99.90;;;;;;4997051;28;20042;-94
2022/09/17 09:14:01;;;;;;;0.00;0.00;;;12.30;99.90;;;;;;4996774;28;20048;-96
2022/09/17 09:16:41;;;;;;;0.00;0.00;;;12.20;99.90;;;;;;5121611;23;20046;31
2022/09/17 09:19:25;;;;;;;0.10;0.00;;;12.10;99.90;;;;;;5085795;23;20058;-93
2022/09/17 09:21:51;;;;;;;0.00;0.00;;;11.90;99.90;;;;;;4977303;28;20413;-96
2022/09/17 09:24:27;;;;;;;0.07;0.07;;;11.80;99.90;;;;;;4978355;28;20054;-96
2022/09/17 09:27:25;;;;;;;0.57;0.10;;;11.60;99.90;;;;;;4993869;28;20081;-96
2022/09/17 09:30:22;;;;;;;0.00;0.00;;;11.60;99.90;;;;;;4993406;28;20401;-94
2022/09/17 09:33:05;;;;;;;0.00;0.00;;;11.60;99.90;;;;;;4992416;28;20062;-95
2022/09/17 09:35:40;;;;;;;0.00;0.00;;;11.80;99.90;;;;;;4977504;28;20042;-96
2022/09/17 09:38:32;;;;;;;0.00;0.00;;;11.90;99.90;;;;;;4978857;28;20052;-95
2022/09/17 09:41:21;;;;;;;0.00;0.00;;;12.00;99.90;;;;;;4977826;28;20401;-96
2022/09/17 09:44:05;;;;;;;0.00;0.00;;;12.00;99.90;;;;;;4983474;28;20086;-96
2022/09/17 09:46:56;;;;;;;0.00;0.00;;;10.80;99.90;;;;;;4989912;28;20065;-96
2022/09/17 09:50:31;;;;;;;0.00;0.00;;;12.30;99.90;;;;;;5000401;28;20054;-96
2022/09/17 09:56:46;;;;;;;0.00;0.00;;;11.70;99.90;;;;;;5050829;23;20058;-93
2022/09/17 09:59:12;;;;;;;0.20;0.10;;;12.20;99.90;;;;;;4979855;28;20050;-96
2022/09/17 10:01:56;;;;;;;0.03;0.03;;;12.10;99.90;;;;;;4980052;28;20136;-93
2022/09/17 10:04:31;;;;;;;0.00;0.00;;;12.00;99.90;;;;;;4996035;28;20050;-93
2022/09/17 10:07:18;;;;;;;0.00;0.00;;;11.90;99.90;;;;;;4979842;28;20575;-95
2022/09/17 10:10:10;;;;;;;0.00;0.00;;;11.80;99.90;;;;;;4996220;28;20370;-95
2022/09/17 10:13:40;;;;;;;0.00;0.00;;;11.80;99.90;;;;;;4992488;28;20058;-95
2022/09/17 10:20:29;;;;;;;0.10;0.03;;;12.20;99.90;;;;;;4993882;28;20453;-96
2022/09/17 10:22:53;;;;;;;0.00;0.00;;;11.50;99.90;;;;;;4995353;28;20041;-96
2022/09/17 10:25:35;;;;;;;0.00;0.00;;;12.80;99.90;;;;;;4965445;28;20042;-96
2022/09/17 13:00:36;;;;;;;;;;;;;;;;;;;;;
2022/09/17 13:07:30;;;;;;;;;;;;;;;;;;;;;
2022/09/17 13:14:29;;;;;;;;;;;;;;;;;;;;;
2022/09/17 13:21:02;;;;;;;0.40;0.10;;;15.70;99.90;;;;;;4750674;29;20055;-96
2022/09/17 13:32:13;;;;;;;;;;;;;;;;;;;;;
2022/09/17 13:49:40;;;;;;;;;;;;;;;;;;;;;
2022/09/17 13:52:43;;;;;;;0.10;0.10;;;14.70;99.90;;;;;;4733976;30;20056;-96
2022/09/17 14:03:59;;;;;;;0.28;0.20;;;15.60;99.90;;;;;;5252422;24;20978;31
2022/09/17 14:10:00;;;;;;;0.00;0.00;;;16.40;99.90;;;;;;4760103;30;20067;-96
2022/09/17 14:12:59;;;;;;;0.25;0.08;;;16.10;99.90;;;;;;4743507;30;20064;-96
2022/09/17 14:16:36;;;;;;;;;;;;;;;;;;;;;
2022/09/17 14:51:45;;;;;;;0.00;0.00;;;13.30;99.90;;;;;;4789669;29;20077;-95
2022/09/17 14:54:26;;;;;;;0.00;0.00;;;13.10;99.90;;;;;;4775456;30;20044;-95
2022/09/17 14:57:02;;;;;;;0.00;0.00;;;12.90;99.90;;;;;;4760694;30;20055;-96
2022/09/17 15:00:26;;;;;;;0.00;0.00;;;13.00;99.90;;;;;;4760200;30;20119;-96
2022/09/17 15:02:58;;;;;;;0.22;0.00;;;12.90;99.90;;;;;;4727925;30;20097;-95
2022/09/17 15:05:42;;;;;;;0.10;0.00;;;13.10;99.90;;;;;;4760771;30;20051;-96
2022/09/17 15:08:22;;;;;;;0.10;0.10;;;13.20;99.90;;;;;;4761284;30;20407;-95
2022/09/17 15:10:56;;;;;;;0.03;0.03;;;13.20;99.90;;;;;;4760201;30;20055;-94
2022/09/17 15:13:37;;;;;;;0.00;0.00;;;13.30;99.90;;;;;;4759749;30;20111;-95
2022/09/17 15:16:29;;;;;;;0.00;0.00;;;13.40;99.90;;;;;;4761327;30;20044;-95
2022/09/17 15:19:03;;;;;;;0.00;0.00;;;13.60;99.90;;;;;;4770378;30;20105;-93
2022/09/17 15:21:43;;;;;;;0.00;0.00;;;13.60;99.90;;;;;;4745070;30;20055;-94
2022/09/17 15:24:24;;;;;;;0.00;0.00;;;13.50;99.90;;;;;;4757660;30;20060;-94
2022/09/17 15:26:53;;;;;;;0.00;0.00;;;13.50;99.90;;;;;;4771484;30;20060;-93
2022/09/17 15:29:24;;;;;;;0.00;0.00;;;13.40;99.90;;;;;;4742554;30;20059;-93
2022/09/17 15:31:50;;;;;;;0.08;0.08;;;13.40;99.90;;;;;;4751181;30;20055;-94
2022/09/17 15:34:41;;;;;;;0.20;0.03;;;14.20;99.90;;;;;;4771090;30;20573;-94
2022/09/17 15:37:19;;;;;;;0.00;0.00;;;13.10;99.90;;;;;;4772695;30;20117;-88
2022/09/17 15:39:54;;;;;;;0.05;0.05;;;13.00;99.90;;;;;;4791436;30;20059;-96
2022/09/17 15:42:30;;;;;;;0.10;0.00;;;13.00;99.90;;;;;;4762462;30;20051;-96
2022/09/17 15:45:20;;;;;;;0.00;0.00;;;12.80;99.90;;;;;;4749805;30;20109;-88
2022/09/17 15:47:51;;;;;;;0.00;0.00;;;12.80;99.90;;;;;;4756740;30;20055;-91
2022/09/17 15:50:27;;;;;;;0.30;0.05;;;12.80;99.90;;;;;;4773066;30;20059;-92
2022/09/17 15:53:08;;;;;;;0.10;0.10;;;13.00;99.90;;;;;;4773588;30;20047;-91
2022/09/17 15:55:42;;;;;;;0.00;0.00;;;13.10;99.90;;;;;;4758149;30;20108;-91
2022/09/17 15:58:26;;;;;;;0.00;0.00;;;13.20;99.90;;;;;;4751251;30;20054;-92
2022/09/17 16:01:16;;;;;;;0.00;0.00;;;13.20;99.90;;;;;;4755495;30;20067;-96
2022/09/17 16:06:33;;;;;;;0.00;0.00;;;13.40;99.90;;;;;;4764511;30;20051;-90
2022/09/17 16:09:32;;;;;;;0.00;0.00;;;13.40;99.90;;;;;;4769599;30;20068;-94
2022/09/17 16:12:03;;;;;;;0.00;0.00;;;12.90;99.90;;;;;;4744940;30;20059;-95
2022/09/17 16:15:04;;;;;;;0.00;0.00;;;13.40;99.90;;;;;;4727924;30;20122;-96
2022/09/17 16:17:36;;;;;;;0.00;0.00;;;12.70;99.90;;;;;;4765924;30;20043;-85
2022/09/17 16:20:14;;;;;;;0.00;0.00;;;13.30;99.90;;;;;;4757133;30;20061;-86
2022/09/17 16:22:56;;;;;;;0.00;0.00;;;13.20;99.90;;;;;;4748408;30;20050;-89
2022/09/17 16:25:31;;;;;;;0.00;0.00;;;13.10;99.90;;;;;;4748257;30;20095;-91
2022/09/17 16:28:01;;;;;;;1.08;0.03;;;13.00;99.90;;;;;;4741344;30;20419;-91
2022/09/17 16:30:38;;;;;;;0.03;0.03;;;12.10;99.90;;;;;;4746018;30;20066;-91
2022/09/17 16:33:05;;;;;;;0.52;0.00;;;12.00;99.90;;;;;;4744250;30;20127;-89
2022/09/17 16:35:43;;;;;;;;;;;;;;;;;;;;;
2022/09/17 16:38:15;;;;;;;0.13;0.13;;;12.80;99.90;;;;;;4761203;30;20051;-90
2022/09/17 16:40:45;;;;;;;0.00;0.00;;;12.90;99.90;;;;;;4746989;30;20101;-87
2022/09/17 16:43:11;;;;;;;0.10;0.10;;;12.80;99.90;;;;;;4751067;30;20071;-87
2022/09/17 16:45:37;;;;;;;0.73;0.08;;;12.70;99.90;;;;;;4746250;30;20542;-89
2022/09/17 16:48:07;;;;;;;0.00;0.00;;;12.60;99.90;;;;;;4768223;30;20043;-89
2022/09/17 16:50:39;;;;;;;0.00;0.00;;;12.60;99.90;;;;;;4742964;30;20059;-89
2022/09/17 16:53:08;;;;;;;0.08;0.08;;;12.60;99.90;;;;;;4770492;30;20048;-88
2022/09/17 16:55:35;;;;;;;0.00;0.00;;;12.60;99.90;;;;;;4745329;30;20100;-88
2022/09/17 16:58:04;;;;;;;0.00;0.00;;;12.60;99.90;;;;;;4765946;30;20062;-88
2022/09/17 17:00:30;;;;;;;0.00;0.00;;;12.50;99.90;;;;;;4753647;30;20151;-88
2022/09/17 17:02:56;;;;;;;0.10;0.10;;;12.50;99.90;;;;;;4755496;30;20134;-86
2022/09/17 17:05:23;;;;;;;0.45;0.13;;;12.50;99.90;;;;;;4752253;30;20681;-87
2022/09/17 17:07:49;;;;;;;0.00;0.00;;;12.50;99.90;;;;;;4759076;30;20056;-88
2022/09/17 17:10:15;;;;;;;0.08;0.08;;;12.60;99.90;;;;;;4761071;30;20391;-88
2022/09/17 17:12:41;;;;;;;0.30;0.28;;;13.40;99.90;;;;;;4751221;30;20043;-86
2022/09/17 17:15:08;;;;;;;0.00;0.00;;;12.40;99.90;;;;;;4728619;30;20125;-86
2022/09/17 17:17:36;;;;;;;0.28;0.10;;;12.40;99.90;;;;;;4741170;30;20051;-86
2022/09/17 17:20:13;;;;;;;0.10;0.10;;;12.30;99.90;;;;;;4756407;30;20055;-86
2022/09/17 17:22:40;;;;;;;;;;;12.40;99.90;;;;;;4753488;30;20138;-86
2022/09/17 17:25:06;;;;;;;;;;;12.40;99.90;;;;;;4752634;30;20343;-87
2022/09/17 17:27:34;;;;;;;;;;;12.30;99.90;;;;;;4769660;30;20037;-89
2022/09/17 17:30:03;;;;;;;;;;;12.30;99.90;;;;;;4751038;30;20060;-86
2022/09/17 17:32:28;;;;;;;;;;;12.30;99.90;;;;;;4739906;30;20271;-87
2022/09/17 17:34:54;;;;;;;;;;;13.00;99.90;;;;;;4761389;30;19933;-88
2022/09/17 17:37:22;;;;;;;;;;;12.10;99.90;;;;;;4783246;30;20317;-86
2022/09/17 17:39:50;;;;;;;;;;;12.10;99.90;;;;;;4768511;30;19930;-88
2022/09/17 17:42:18;;;;;;;;;;;12.10;99.90;;;;;;4768412;30;20370;-90
2022/09/17 17:44:46;;;;;;;;;;;12.10;99.90;;;;;;4764696;30;19926;-88
2022/09/17 17:47:12;;;;;;;;;;;12.10;99.90;;;;;;4767230;30;19925;-86
2022/09/17 17:49:48;;;;;;;;;;;12.00;99.90;;;;;;4739432;30;19948;-93
2022/09/17 17:52:14;;;;;;;;;;;12.10;99.90;;;;;;4762826;30;19926;-84
2022/09/17 17:54:39;;;;;;;;;;;12.30;99.90;;;;;;4764572;30;19925;-86
2022/09/17 17:57:05;;;;;;;;;;;12.10;99.90;;;;;;4759521;30;19926;-88